Time;durP1;ratioP1;P1;durP2;ratioP2;P2;SDS_P1;SDS_P2;PMS_P1;PMS_P2;Temp;Humidity;BMP_temperature;BMP_pressure;BME280_temperature;BME280_humidity;BME280_pressure;Samples;Min_cycle;Max_cycle;Signal;HPM_P1;HPM_P2
2021/10/29 00:05:56;;;;;;;3.67;3.35;;;;;;;;;;5105918;28;20138;-61
2021/10/29 00:08:21;;;;;;;3.95;3.13;;;;;;;;;;5105836;28;20119;-61
2021/10/29 00:10:47;;;;;;;3.92;3.40;;;;;;;;;;5106535;28;20164;-61
2021/10/29 00:13:12;;;;;;;4.03;3.60;;;;;;;;;;5105798;28;20027;-61
2021/10/29 00:15:38;;;;;;;4.43;3.75;;;;;;;;;;5105670;28;20068;-61
2021/10/29 00:18:04;;;;;;;6.18;4.00;;;;;;;;;;5110234;28;20495;-60
2021/10/29 00:20:30;;;;;;;4.18;3.63;;;;;;;;;;5105912;28;20036;-60
2021/10/29 00:22:55;;;;;;;5.82;3.95;;;;;;;;;;5102625;28;20146;-60
2021/10/29 00:25:21;;;;;;;5.65;3.63;;;;;;;;;;5105095;28;20562;-60
2021/10/29 00:27:47;;;;;;;4.43;3.60;;;;;;;;;;5106860;28;20024;-60
2021/10/29 00:30:12;;;;;;;4.70;3.95;;;;;;;;;;5106489;28;20046;-60
2021/10/29 00:32:38;;;;;;;5.80;4.35;;;;;;;;;;5103720;28;20028;-60
2021/10/29 00:35:04;;;;;;;5.05;3.92;;;;;;;;;;5106266;28;20083;-61
2021/10/29 00:37:37;;;;;;;4.00;3.60;;;;;;;;;;5103203;28;20050;-61
2021/10/29 00:40:05;;;;;;;4.50;3.58;;;;;;;;;;5106013;28;20405;-61
2021/10/29 00:42:30;;;;;;;5.07;3.38;;;;;;;;;;5092645;28;20099;-61
2021/10/29 00:44:56;;;;;;;5.80;4.63;;;;;;;;;;5103022;28;20180;-61
2021/10/29 00:47:21;;;;;;;3.92;3.38;;;;;;;;;;5105599;28;20047;-61
2021/10/29 00:49:47;;;;;;;4.75;4.20;;;;;;;;;;5104556;28;20038;-61
2021/10/29 00:52:13;;;;;;;4.53;4.13;;;;;;;;;;5090009;28;20111;-61
2021/10/29 00:54:38;;;;;;;5.18;4.63;;;;;;;;;;5105183;28;20031;-60
2021/10/29 00:57:04;;;;;;;4.88;4.28;;;;;;;;;;5102848;28;20035;-60
2021/10/29 00:59:29;;;;;;;4.97;4.45;;;;;;;;;;5103371;28;20027;-60
2021/10/29 01:01:55;;;;;;;7.40;5.15;;;;;;;;;;5103615;28;20052;-61
2021/10/29 01:04:20;;;;;;;4.82;3.70;;;;;;;;;;5105164;28;20356;-61
2021/10/29 01:06:45;;;;;;;5.28;4.40;;;;;;;;;;5106970;28;20144;-60
2021/10/29 01:09:11;;;;;;;4.97;4.47;;;;;;;;;;5101765;28;20043;-60
2021/10/29 01:11:38;;;;;;;5.05;4.03;;;;;;;;;;5103469;28;20035;-61
2021/10/29 01:14:04;;;;;;;5.43;4.40;;;;;;;;;;5103960;28;20432;-60
2021/10/29 01:16:30;;;;;;;7.47;5.90;;;;;;;;;;5101122;28;20028;-61
2021/10/29 01:18:55;;;;;;;6.05;5.40;;;;;;;;;;5103399;28;20035;-60
2021/10/29 01:21:20;;;;;;;9.98;5.85;;;;;;;;;;5105648;28;20093;-61
2021/10/29 01:23:46;;;;;;;8.60;7.18;;;;;;;;;;5106586;28;20508;-61
2021/10/29 01:26:14;;;;;;;6.38;5.68;;;;;;;;;;5087720;28;20031;-61
2021/10/29 01:28:40;;;;;;;6.47;4.95;;;;;;;;;;5103960;28;20035;-62
2021/10/29 01:31:06;;;;;;;6.28;5.22;;;;;;;;;;5101410;28;20043;-62
2021/10/29 01:33:32;;;;;;;12.95;6.68;;;;;;;;;;5105573;28;20028;-61
2021/10/29 01:35:58;;;;;;;9.48;6.53;;;;;;;;;;5104476;28;20044;-61
2021/10/29 01:38:38;;;;;;;10.55;6.18;;;;;;;;;;5100307;28;20034;-61
2021/10/29 01:41:05;;;;;;;6.85;6.15;;;;;;;;;;5105959;28;20158;-61
2021/10/29 01:43:30;;;;;;;12.02;8.02;;;;;;;;;;5105593;28;20106;-61
2021/10/29 01:45:56;;;;;;;8.27;5.95;;;;;;;;;;5103081;28;20466;-61
2021/10/29 01:48:25;;;;;;;13.40;6.22;;;;;;;;;;5102914;28;20028;-61
2021/10/29 01:50:51;;;;;;;4.70;4.00;;;;;;;;;;5105770;28;20023;-61
2021/10/29 01:53:17;;;;;;;7.68;6.07;;;;;;;;;;5102417;28;20085;-61
2021/10/29 01:55:42;;;;;;;15.18;6.35;;;;;;;;;;5103982;28;20030;-61
2021/10/29 01:58:08;;;;;;;6.32;4.50;;;;;;;;;;5103377;28;20032;-61
2021/10/29 02:00:34;;;;;;;8.52;6.53;;;;;;;;;;5103626;28;20484;-61
2021/10/29 02:02:59;;;;;;;7.45;6.03;;;;;;;;;;5102505;28;20028;-61
2021/10/29 02:05:25;;;;;;;8.82;6.25;;;;;;;;;;5104148;28;20030;-61
2021/10/29 02:07:50;;;;;;;10.07;5.70;;;;;;;;;;5103297;28;20559;-61
2021/10/29 02:10:16;;;;;;;7.00;4.93;;;;;;;;;;5104749;28;20063;-61
2021/10/29 02:12:43;;;;;;;9.07;6.13;;;;;;;;;;5106370;28;20035;-61
2021/10/29 02:15:09;;;;;;;6.15;5.38;;;;;;;;;;5100905;28;20196;-61
2021/10/29 02:17:34;;;;;;;15.85;6.75;;;;;;;;;;5106252;28;20035;-61
2021/10/29 02:20:00;;;;;;;8.73;6.25;;;;;;;;;;5104732;28;20135;-61
2021/10/29 02:22:26;;;;;;;6.63;5.30;;;;;;;;;;5105162;28;20039;-61
2021/10/29 02:24:51;;;;;;;12.10;6.65;;;;;;;;;;5098174;28;20046;-61
2021/10/29 02:27:17;;;;;;;11.82;6.78;;;;;;;;;;5090437;28;20544;-61
2021/10/29 02:29:42;;;;;;;6.70;6.00;;;;;;;;;;5104132;28;20041;-61
2021/10/29 02:32:08;;;;;;;9.23;6.38;;;;;;;;;;5103173;28;20036;-61
2021/10/29 02:34:34;;;;;;;8.15;6.05;;;;;;;;;;5101538;28;20065;-61
2021/10/29 02:36:59;;;;;;;6.68;5.95;;;;;;;;;;5101225;28;20036;-61
2021/10/29 02:39:24;;;;;;;17.15;6.78;;;;;;;;;;5100720;28;20035;-61
2021/10/29 02:41:50;;;;;;;4.72;3.92;;;;;;;;;;5104362;28;20054;-61
2021/10/29 02:44:15;;;;;;;6.85;5.40;;;;;;;;;;5089817;28;20796;-61
2021/10/29 02:46:41;;;;;;;7.18;5.22;;;;;;;;;;5103038;28;20031;-61
2021/10/29 02:49:06;;;;;;;8.60;5.97;;;;;;;;;;5100097;28;20039;-62
2021/10/29 02:51:32;;;;;;;9.88;6.65;;;;;;;;;;5084671;28;20032;-61
2021/10/29 02:53:58;;;;;;;7.88;5.45;;;;;;;;;;5098101;28;20452;-61
2021/10/29 02:56:23;;;;;;;5.88;5.35;;;;;;;;;;5103256;28;20031;-61
2021/10/29 02:58:49;;;;;;;9.68;6.47;;;;;;;;;;5102378;28;20027;-60
2021/10/29 03:01:15;;;;;;;12.02;5.93;;;;;;;;;;5100467;28;20040;-61
2021/10/29 03:03:40;;;;;;;6.07;4.05;;;;;;;;;;5100157;28;20084;-61
2021/10/29 03:06:06;;;;;;;7.68;6.07;;;;;;;;;;5104936;28;20356;-61
2021/10/29 03:08:31;;;;;;;6.68;4.57;;;;;;;;;;5104986;28;20019;-61
2021/10/29 03:10:57;;;;;;;7.03;5.53;;;;;;;;;;5101112;28;20492;-60
2021/10/29 03:13:23;;;;;;;6.20;5.53;;;;;;;;;;5100501;28;20091;-61
2021/10/29 03:15:49;;;;;;;4.85;4.35;;;;;;;;;;5101529;28;20257;-61
2021/10/29 03:18:16;;;;;;;6.97;5.15;;;;;;;;;;5099560;28;20070;-61
2021/10/29 03:20:42;;;;;;;5.03;4.10;;;;;;;;;;5099978;28;20461;-61
2021/10/29 03:23:08;;;;;;;7.90;5.63;;;;;;;;;;5101030;28;20024;-61
2021/10/29 03:25:33;;;;;;;7.65;5.13;;;;;;;;;;5103594;28;20528;-61
2021/10/29 03:27:59;;;;;;;5.97;4.63;;;;;;;;;;5092274;28;20043;-61
2021/10/29 03:30:26;;;;;;;8.60;6.45;;;;;;;;;;5106410;28;20469;-61
2021/10/29 03:32:53;;;;;;;11.77;5.30;;;;;;;;;;5104679;28;20642;-61
2021/10/29 03:35:19;;;;;;;6.38;5.22;;;;;;;;;;5103270;28;20039;-61
2021/10/29 03:43:05;;;;;;;10.38;6.13;;;;;;;;;;5108306;28;20027;-61
2021/10/29 03:45:34;;;;;;;7.05;5.18;;;;;;;;;;5107937;28;20030;-61
2021/10/29 03:48:02;;;;;;;4.95;4.22;;;;;;;;;;5104328;28;20035;-61
2021/10/29 03:50:33;;;;;;;10.05;5.75;;;;;;;;;;5105913;28;20020;-61
2021/10/29 03:53:09;;;;;;;6.05;4.40;;;;;;;;;;5104665;28;20127;-61
2021/10/29 03:55:38;;;;;;;6.38;5.40;;;;;;;;;;5105370;28;20043;-61
2021/10/29 03:58:04;;;;;;;7.40;5.30;;;;;;;;;;5107591;28;20035;-61
2021/10/29 04:00:30;;;;;;;6.28;4.97;;;;;;;;;;5089118;28;20370;-61
2021/10/29 04:03:01;;;;;;;8.25;5.25;;;;;;;;;;5107718;28;20030;-61
2021/10/29 04:05:29;;;;;;;6.53;4.57;;;;;;;;;;5103299;28;20462;-61
2021/10/29 04:07:55;;;;;;;12.57;6.30;;;;;;;;;;5107355;28;20031;-61
2021/10/29 04:10:25;;;;;;;9.27;6.68;;;;;;;;;;5109515;28;20038;-61
2021/10/29 04:12:52;;;;;;;7.55;6.07;;;;;;;;;;5092367;28;20027;-61
2021/10/29 04:15:17;;;;;;;7.30;5.47;;;;;;;;;;5105608;28;20023;-61
2021/10/29 04:17:43;;;;;;;11.05;6.80;;;;;;;;;;5106249;28;20039;-61
2021/10/29 04:20:08;;;;;;;7.75;5.13;;;;;;;;;;5105028;28;20035;-61
2021/10/29 04:22:34;;;;;;;6.90;5.47;;;;;;;;;;5103858;28;20039;-61
2021/10/29 04:24:59;;;;;;;7.40;5.20;;;;;;;;;;5089904;28;20020;-61
2021/10/29 04:27:30;;;;;;;8.98;6.28;;;;;;;;;;5106432;28;20434;-61
2021/10/29 04:29:56;;;;;;;5.95;5.35;;;;;;;;;;5104892;28;20041;-61
2021/10/29 04:32:21;;;;;;;10.48;4.88;;;;;;;;;;5106455;28;20524;-61
2021/10/29 04:34:46;;;;;;;6.78;5.47;;;;;;;;;;5107709;28;20023;-61
2021/10/29 04:37:13;;;;;;;5.60;4.75;;;;;;;;;;5107201;28;20123;-61
2021/10/29 04:39:38;;;;;;;8.52;5.75;;;;;;;;;;5106884;28;20059;-61
2021/10/29 04:42:05;;;;;;;5.38;3.95;;;;;;;;;;5109467;28;20066;-61
2021/10/29 04:44:30;;;;;;;7.70;5.68;;;;;;;;;;5107158;28;20028;-61
2021/10/29 04:46:55;;;;;;;5.25;4.72;;;;;;;;;;5107733;28;20042;-61
2021/10/29 04:49:21;;;;;;;7.03;4.85;;;;;;;;;;5107068;28;20035;-61
2021/10/29 04:51:47;;;;;;;5.78;4.38;;;;;;;;;;5104965;28;20106;-61
2021/10/29 04:54:12;;;;;;;6.32;5.10;;;;;;;;;;5102207;28;20059;-60
2021/10/29 04:56:38;;;;;;;5.38;3.97;;;;;;;;;;5106280;28;20356;-61
2021/10/29 04:59:04;;;;;;;9.55;5.43;;;;;;;;;;5105623;28;20054;-61
2021/10/29 05:01:29;;;;;;;6.00;3.90;;;;;;;;;;5106479;28;20114;-60
2021/10/29 05:03:55;;;;;;;4.93;4.15;;;;;;;;;;5091024;28;20028;-60
2021/10/29 05:06:20;;;;;;;4.72;4.00;;;;;;;;;;5105953;28;20056;-61
2021/10/29 05:08:45;;;;;;;7.30;4.53;;;;;;;;;;5092070;28;20046;-60
2021/10/29 05:11:11;;;;;;;9.48;4.20;;;;;;;;;;5106832;28;20035;-60
2021/10/29 05:13:37;;;;;;;12.52;5.22;;;;;;;;;;5085656;28;20456;-60
2021/10/29 05:16:02;;;;;;;7.25;4.00;;;;;;;;;;5106590;28;20461;-60
2021/10/29 05:18:28;;;;;;;6.25;5.10;;;;;;;;;;5106173;28;20047;-60
2021/10/29 05:20:53;;;;;;;7.85;4.53;;;;;;;;;;5105583;28;20031;-60
2021/10/29 05:23:19;;;;;;;5.15;3.55;;;;;;;;;;5104412;28;20473;-60
2021/10/29 05:25:44;;;;;;;5.35;4.13;;;;;;;;;;5091935;28;20480;-60
2021/10/29 05:28:10;;;;;;;4.53;3.03;;;;;;;;;;5104175;28;20150;-60
2021/10/29 05:30:37;;;;;;;6.35;4.13;;;;;;;;;;5105413;28;20892;-60
2021/10/29 05:33:03;;;;;;;5.57;4.43;;;;;;;;;;5104353;28;20035;-60
2021/10/29 05:35:29;;;;;;;8.02;5.63;;;;;;;;;;5103648;28;20036;-61
2021/10/29 05:37:54;;;;;;;5.20;4.70;;;;;;;;;;5105327;28;20704;-60
2021/10/29 05:40:20;;;;;;;5.38;4.05;;;;;;;;;;5105808;28;20730;-60
2021/10/29 05:42:46;;;;;;;6.28;4.63;;;;;;;;;;5102582;28;20100;-60
2021/10/29 05:45:12;;;;;;;4.18;3.25;;;;;;;;;;5102411;28;20042;-60
2021/10/29 05:47:38;;;;;;;6.32;4.95;;;;;;;;;;5103264;28;20038;-60
2021/10/29 05:50:07;;;;;;;6.13;4.03;;;;;;;;;;5104598;28;20032;-60
2021/10/29 05:52:36;;;;;;;16.25;4.63;;;;;;;;;;5106688;28;20036;-60
2021/10/29 05:55:13;;;;;;;6.90;4.85;;;;;;;;;;5103960;28;20063;-60
2021/10/29 05:57:47;;;;;;;5.55;4.35;;;;;;;;;;5102202;28;20146;-60
2021/10/29 06:00:14;;;;;;;5.93;4.32;;;;;;;;;;5102107;28;20055;-60
2021/10/29 06:02:40;;;;;;;4.50;3.97;;;;;;;;;;5105446;28;20127;-60
2021/10/29 06:05:06;;;;;;;6.68;4.97;;;;;;;;;;5102038;28;20019;-60
2021/10/29 06:07:32;;;;;;;6.45;5.20;;;;;;;;;;5106110;28;20372;-61
2021/10/29 06:09:58;;;;;;;8.63;4.63;;;;;;;;;;5103638;28;20127;-61
2021/10/29 06:12:24;;;;;;;5.63;4.45;;;;;;;;;;5102900;28;20475;-61
2021/10/29 06:14:50;;;;;;;5.20;4.70;;;;;;;;;;5100504;28;20040;-61
2021/10/29 06:17:18;;;;;;;5.50;4.55;;;;;;;;;;5103897;27;20016;-61
2021/10/29 06:19:44;;;;;;;4.40;3.88;;;;;;;;;;5080661;28;20867;-61
2021/10/29 06:24:36;;;;;;;3.53;3.05;;;;;;;;;;5102912;28;20031;-61
2021/10/29 06:29:46;;;;;;;4.38;3.10;;;;;;;;;;5099463;28;20062;-61
2021/10/29 06:32:14;;;;;;;7.22;6.40;;;;;;;;;;5103991;28;20040;-61
2021/10/29 06:34:39;;;;;;;25.20;17.08;;;;;;;;;;5103718;28;20031;-61
2021/10/29 06:37:07;;;;;;;35.50;21.17;;;;;;;;;;5083320;28;20066;-61
2021/10/29 06:39:33;;;;;;;16.65;11.90;;;;;;;;;;5103018;28;20023;-61
2021/10/29 06:42:04;;;;;;;8.25;6.50;;;;;;;;;;5085884;28;20023;-61
2021/10/29 06:47:33;;;;;;;4.60;3.63;;;;;;;;;;5101460;28;20036;-61
2021/10/29 07:00:37;;;;;;;5.22;4.45;;;;;;;;;;5086032;28;20114;-61
2021/10/29 07:03:30;;;;;;;5.25;4.22;;;;;;;;;;5108219;28;20051;-69
2021/10/29 07:41:26;;;;;;;7.20;5.70;;;;;;;;;;5108301;27;20109;-68
2021/10/29 07:44:00;;;;;;;6.68;4.82;;;;;;;;;;5110970;28;20099;-69
2021/10/29 07:46:25;;;;;;;6.07;4.70;;;;;;;;;;5108733;28;20092;-68
2021/10/29 07:48:50;;;;;;;6.10;4.82;;;;;;;;;;5106071;28;20106;-68
2021/10/29 07:51:17;;;;;;;7.38;4.63;;;;;;;;;;5109866;28;20107;-69
2021/10/29 07:53:44;;;;;;;4.68;4.15;;;;;;;;;;5107909;28;20522;-69
2021/10/29 07:56:09;;;;;;;6.57;5.15;;;;;;;;;;5090461;28;20613;-69
2021/10/29 07:58:35;;;;;;;7.05;5.60;;;;;;;;;;5108914;28;20030;-69
2021/10/29 08:01:01;;;;;;;8.38;5.55;;;;;;;;;;5107733;28;20028;-69
2021/10/29 08:03:28;;;;;;;5.75;4.43;;;;;;;;;;5108777;28;20039;-69
2021/10/29 08:05:53;;;;;;;5.95;5.15;;;;;;;;;;5105592;28;20477;-69
2021/10/29 08:08:20;;;;;;;6.63;5.43;;;;;;;;;;5107381;28;20027;-69
2021/10/29 08:10:47;;;;;;;6.00;4.53;;;;;;;;;;5107970;28;20038;-69
2021/10/29 08:13:12;;;;;;;7.72;5.10;;;;;;;;;;5104965;28;20494;-69
2021/10/29 08:15:39;;;;;;;7.57;4.55;;;;;;;;;;5106664;28;20042;-69
2021/10/29 08:18:06;;;;;;;8.75;5.38;;;;;;;;;;5104175;28;20032;-69
2021/10/29 08:20:35;;;;;;;4.63;3.75;;;;;;;;;;5106476;28;20020;-69
2021/10/29 08:23:03;;;;;;;6.35;5.70;;;;;;;;;;5104098;28;20032;-69
2021/10/29 08:25:29;;;;;;;6.55;5.43;;;;;;;;;;5105015;28;20100;-69
2021/10/29 08:27:55;;;;;;;9.70;5.45;;;;;;;;;;5107044;28;20035;-69
2021/10/29 08:30:23;;;;;;;12.98;5.97;;;;;;;;;;5102740;28;20132;-69
2021/10/29 08:32:49;;;;;;;6.28;5.00;;;;;;;;;;5093293;28;20031;-69
2021/10/29 08:35:15;;;;;;;6.40;5.75;;;;;;;;;;5101067;28;20499;-69
2021/10/29 08:37:41;;;;;;;7.50;5.82;;;;;;;;;;5104496;28;20536;-69
2021/10/29 08:40:08;;;;;;;7.25;5.82;;;;;;;;;;5108561;28;20151;-69
2021/10/29 08:42:34;;;;;;;5.68;4.68;;;;;;;;;;5103027;28;20108;-69
2021/10/29 08:45:05;;;;;;;6.97;5.90;;;;;;;;;;5101541;28;20459;-69
2021/10/29 08:47:32;;;;;;;;;;;;;;;;;;5105114;28;20046;-69
2021/10/29 08:49:57;;;;;;;8.88;6.10;;;;;;;;;;5107172;28;20306;-69
2021/10/29 08:52:24;;;;;;;14.68;5.80;;;;;;;;;;5106221;28;20114;-69
2021/10/29 08:54:50;;;;;;;7.70;5.82;;;;;;;;;;5104398;28;20028;-69
2021/10/29 08:57:16;;;;;;;6.88;5.95;;;;;;;;;;5105264;28;20132;-69
2021/10/29 08:59:46;;;;;;;7.72;5.75;;;;;;;;;;5103276;28;20020;-69
2021/10/29 09:02:30;;;;;;;11.82;5.68;;;;;;;;;;5106618;28;20024;-69
2021/10/29 09:05:10;;;;;;;7.68;6.90;;;;;;;;;;5105468;28;20106;-69
2021/10/29 09:10:28;;;;;;;6.68;5.22;;;;;;;;;;5106093;28;20103;-69
2021/10/29 09:32:56;;;;;;;7.32;5.70;;;;;;;;;;5107553;28;20034;-70
2021/10/29 09:35:24;;;;;;;7.95;5.97;;;;;;;;;;5104014;28;20039;-69
2021/10/29 09:38:11;;;;;;;10.10;6.13;;;;;;;;;;5102536;28;20027;-70
2021/10/29 09:40:41;;;;;;;5.72;5.13;;;;;;;;;;5108297;28;20082;-69
2021/10/29 09:43:15;;;;;;;6.20;5.53;;;;;;;;;;5103347;28;20024;-69
2021/10/29 09:45:59;;;;;;;9.30;6.25;;;;;;;;;;5101993;28;20047;-69
2021/10/29 09:48:30;;;;;;;8.55;6.40;;;;;;;;;;5106898;28;20054;-69
2021/10/29 09:50:58;;;;;;;6.82;5.93;;;;;;;;;;5103379;28;20039;-69
2021/10/29 09:56:15;;;;;;;10.38;8.68;;;;;;;;;;5105301;28;20445;-69
2021/10/29 09:58:42;;;;;;;5.72;4.90;;;;;;;;;;5103643;28;20027;-69
2021/10/29 10:01:08;;;;;;;6.65;6.05;;;;;;;;;;5099563;27;20073;-69
2021/10/29 10:03:34;;;;;;;7.53;6.07;;;;;;;;;;5104811;28;20541;-69
2021/10/29 10:06:02;;;;;;;7.55;5.95;;;;;;;;;;5103689;28;20039;-69
2021/10/29 10:08:29;;;;;;;8.27;6.82;;;;;;;;;;5104385;28;20024;-70
2021/10/29 10:10:58;;;;;;;8.63;6.38;;;;;;;;;;5105096;28;20031;-70
2021/10/29 10:13:24;;;;;;;6.10;5.50;;;;;;;;;;5102515;28;20036;-62
2021/10/29 10:15:54;;;;;;;6.40;4.90;;;;;;;;;;5102808;28;20093;-62
2021/10/29 10:18:20;;;;;;;8.70;6.28;;;;;;;;;;5098780;28;20043;-62
2021/10/29 10:20:48;;;;;;;8.77;6.88;;;;;;;;;;5101720;28;20024;-62
2021/10/29 10:23:18;;;;;;;7.80;5.90;;;;;;;;;;5103075;28;20606;-62
2021/10/29 10:41:01;;;;;;;6.28;5.03;;;;;;;;;;5103492;28;20055;-62
2021/10/29 10:43:07;;;;;;;14.02;5.88;;;;;;;;;;5083711;28;20495;-62
2021/10/29 10:45:41;;;;;;;6.82;5.57;;;;;;;;;;5104282;28;20046;-62
2021/10/29 10:48:20;;;;;;;8.65;6.20;;;;;;;;;;5104546;28;20080;-62
2021/10/29 10:50:48;;;;;;;7.10;5.78;;;;;;;;;;5102678;28;20049;-62
2021/10/29 10:53:25;;;;;;;6.90;5.88;;;;;;;;;;5101746;28;20035;-62
2021/10/29 10:56:03;;;;;;;5.75;4.95;;;;;;;;;;5102268;28;20042;-62
2021/10/29 11:12:23;;;;;;;6.10;5.18;;;;;;;;;;5101043;28;20055;-62
2021/10/29 11:15:07;;;;;;;8.88;6.95;;;;;;;;;;5103880;28;20027;-62
2021/10/29 11:18:01;;;;;;;7.68;5.80;;;;;;;;;;5103140;28;20043;-62
2021/10/29 11:20:36;;;;;;;5.97;4.57;;;;;;;;;;5091803;28;20040;-62
2021/10/29 11:23:07;;;;;;;6.85;5.68;;;;;;;;;;5101718;28;20040;-62
2021/10/29 11:25:52;;;;;;;;;;;;;;;;;;5103409;28;20024;-62
2021/10/29 11:28:25;;;;;;;5.97;5.28;;;;;;;;;;5102164;28;20401;-62
2021/10/29 11:30:55;;;;;;;10.55;6.68;;;;;;;;;;5101025;28;20372;-61
2021/10/29 11:33:20;;;;;;;5.22;4.68;;;;;;;;;;5104419;28;20547;-62
2021/10/29 11:36:02;;;;;;;8.30;6.28;;;;;;;;;;5105437;28;20059;-62
2021/10/29 11:38:33;;;;;;;10.63;6.07;;;;;;;;;;5098502;28;20058;-62
2021/10/29 11:41:01;;;;;;;6.97;5.82;;;;;;;;;;5102242;28;20047;-62
2021/10/29 11:43:30;;;;;;;5.85;5.03;;;;;;;;;;5103519;28;20027;-62
2021/10/29 11:45:57;;;;;;;6.88;6.20;;;;;;;;;;5101456;28;20028;-62
2021/10/29 11:48:23;;;;;;;7.10;5.88;;;;;;;;;;5106357;28;20373;-63
2021/10/29 11:51:10;;;;;;;10.70;7.55;;;;;;;;;;5107641;27;20112;-61
2021/10/29 11:53:42;;;;;;;5.97;5.38;;;;;;;;;;5103093;28;20144;-62
2021/10/29 11:56:23;;;;;;;8.00;5.97;;;;;;;;;;5106198;27;20372;-62
2021/10/29 11:59:21;;;;;;;8.00;6.13;;;;;;;;;;5105688;28;20031;-62
2021/10/29 12:01:55;;;;;;;5.32;4.47;;;;;;;;;;5105787;28;20028;-62
2021/10/29 12:09:49;;;;;;;9.75;5.43;;;;;;;;;;5104021;28;20453;-62
2021/10/29 12:12:21;;;;;;;5.97;5.07;;;;;;;;;;5102736;28;20471;-61
2021/10/29 12:14:50;;;;;;;6.13;5.53;;;;;;;;;;5106383;28;20028;-62
2021/10/29 12:17:43;;;;;;;6.88;5.40;;;;;;;;;;5106264;28;20035;-61
2021/10/29 12:20:14;;;;;;;6.07;5.30;;;;;;;;;;5104128;28;20023;-62
2021/10/29 12:22:42;;;;;;;6.35;5.45;;;;;;;;;;5100239;28;20027;-62
2021/10/29 12:28:30;;;;;;;6.93;5.55;;;;;;;;;;5106058;28;20031;-62
2021/10/29 12:30:41;;;;;;;;;;;;;;;;;;5096409;27;20074;-62
2021/10/29 13:03:09;;;;;;;10.38;5.50;;;;;;;;;;5105128;28;20036;-62
2021/10/29 13:05:37;;;;;;;6.60;5.88;;;;;;;;;;5104520;28;20031;-62
2021/10/29 13:08:20;;;;;;;8.55;6.00;;;;;;;;;;5103095;28;20101;-61
2021/10/29 13:10:46;;;;;;;9.60;6.40;;;;;;;;;;5103848;28;20023;-62
2021/10/29 13:13:20;;;;;;;7.15;5.35;;;;;;;;;;5103408;28;20051;-62
2021/10/29 13:15:47;;;;;;;6.45;5.20;;;;;;;;;;5105840;28;20461;-62
2021/10/29 13:18:18;;;;;;;10.75;5.72;;;;;;;;;;5104164;28;20100;-62
2021/10/29 13:26:21;;;;;;;8.13;6.07;;;;;;;;;;5106821;28;20038;-62
2021/10/29 13:28:56;;;;;;;8.93;5.65;;;;;;;;;;5102350;28;20035;-62
2021/10/29 13:56:01;;;;;;;10.73;6.32;;;;;;;;;;5104053;28;20064;-61
2021/10/29 13:58:47;;;;;;;;;;;;;;;;;;5101661;28;20513;-61
2021/10/29 14:34:12;;;;;;;7.28;5.70;;;;;;;;;;5023249;28;20029;-69
2021/10/29 14:36:49;;;;;;;7.63;6.85;;;;;;;;;;5096095;28;20492;-69
2021/10/29 14:39:55;;;;;;;7.70;6.70;;;;;;;;;;5103236;28;20035;-68
2021/10/29 14:47:31;;;;;;;7.35;6.53;;;;;;;;;;5092154;28;20131;-62
2021/10/29 15:06:21;;;;;;;7.18;5.85;;;;;;;;;;5100150;28;20024;-62
2021/10/29 15:30:12;;;;;;;7.63;6.47;;;;;;;;;;5108930;28;20350;-62
2021/10/29 15:33:14;;;;;;;7.95;7.15;;;;;;;;;;5108372;27;20023;-62
2021/10/29 15:41:52;;;;;;;11.38;7.68;;;;;;;;;;5109195;27;20082;-61
2021/10/29 15:51:55;;;;;;;9.00;6.22;;;;;;;;;;5108749;27;20047;-61
2021/10/29 15:54:21;;;;;;;10.18;7.78;;;;;;;;;;5107139;27;20020;-61
2021/10/29 15:59:28;;;;;;;11.07;9.10;;;;;;;;;;5106256;28;20046;-61
2021/10/29 16:02:09;;;;;;;9.48;7.63;;;;;;;;;;5108077;27;20100;-61
2021/10/29 16:18:15;;;;;;;8.50;7.55;;;;;;;;;;5106786;28;20103;-62
2021/10/29 16:20:40;;;;;;;9.50;7.53;;;;;;;;;;5107182;27;20172;-62
2021/10/29 16:23:06;;;;;;;9.13;6.43;;;;;;;;;;5106361;28;20062;-61
2021/10/29 16:25:36;;;;;;;9.10;7.25;;;;;;;;;;5108566;28;20527;-61
2021/10/29 16:28:04;;;;;;;9.10;7.55;;;;;;;;;;5106160;28;20031;-61
2021/10/29 16:30:32;;;;;;;9.52;7.60;;;;;;;;;;5107308;27;20353;-61
2021/10/29 16:35:29;;;;;;;9.52;8.43;;;;;;;;;;5106048;28;20036;-61
2021/10/29 16:37:55;;;;;;;11.00;8.18;;;;;;;;;;5107627;27;20578;-61
2021/10/29 16:40:20;;;;;;;15.95;9.60;;;;;;;;;;5085918;27;20027;-62
2021/10/29 16:42:46;;;;;;;10.98;7.78;;;;;;;;;;5103807;27;20372;-61
2021/10/29 16:45:17;;;;;;;10.57;8.02;;;;;;;;;;5105379;27;20036;-61
2021/10/29 16:47:44;;;;;;;11.02;9.40;;;;;;;;;;5105756;28;20031;-62
2021/10/29 16:50:11;;;;;;;10.77;8.70;;;;;;;;;;5105702;28;20134;-62
2021/10/29 16:52:37;;;;;;;13.25;10.07;;;;;;;;;;5103355;27;20036;-62
2021/10/29 16:55:03;;;;;;;13.35;7.93;;;;;;;;;;5103533;27;20076;-62
2021/10/29 16:57:29;;;;;;;11.10;8.43;;;;;;;;;;5103682;27;20031;-62
2021/10/29 16:59:54;;;;;;;15.55;9.20;;;;;;;;;;5109015;27;20098;-62
2021/10/29 17:02:20;;;;;;;14.02;8.48;;;;;;;;;;5108371;27;20047;-62
2021/10/29 17:04:45;;;;;;;13.60;8.10;;;;;;;;;;5104669;27;20032;-62
2021/10/29 17:07:10;;;;;;;14.70;10.30;;;;;;;;;;5091785;28;20479;-62
2021/10/29 17:09:36;;;;;;;12.85;9.63;;;;;;;;;;5103748;27;20063;-62
2021/10/29 17:12:02;;;;;;;9.65;8.10;;;;;;;;;;5102513;28;20035;-62
2021/10/29 17:14:28;;;;;;;18.27;9.10;;;;;;;;;;5103904;28;20036;-62
2021/10/29 17:16:54;;;;;;;12.93;8.90;;;;;;;;;;5103981;27;20034;-62
2021/10/29 17:19:21;;;;;;;8.82;7.45;;;;;;;;;;5089171;27;20051;-62
2021/10/29 17:21:46;;;;;;;12.15;8.45;;;;;;;;;;5104159;27;20019;-62
2021/10/29 17:24:11;;;;;;;12.80;7.15;;;;;;;;;;5105787;27;20035;-61
2021/10/29 17:26:37;;;;;;;11.18;7.72;;;;;;;;;;5103949;27;20035;-62
2021/10/29 17:29:02;;;;;;;9.57;7.30;;;;;;;;;;5103809;28;20113;-62
2021/10/29 17:31:29;;;;;;;8.98;7.85;;;;;;;;;;5101787;28;20050;-61
2021/10/29 17:33:54;;;;;;;12.02;9.40;;;;;;;;;;5103063;28;20046;-61
2021/10/29 17:36:20;;;;;;;11.02;6.68;;;;;;;;;;5105699;28;20023;-61
2021/10/29 17:38:45;;;;;;;12.65;9.23;;;;;;;;;;5103660;28;20039;-61
2021/10/29 17:41:11;;;;;;;6.45;5.82;;;;;;;;;;5103841;28;20150;-61
2021/10/29 17:43:38;;;;;;;9.60;7.88;;;;;;;;;;5102897;27;20066;-61
2021/10/29 17:46:05;;;;;;;11.77;8.88;;;;;;;;;;5100094;28;20023;-62
2021/10/29 17:48:30;;;;;;;9.30;7.45;;;;;;;;;;5100795;28;20452;-62
2021/10/29 17:50:56;;;;;;;10.50;8.32;;;;;;;;;;5105595;27;20024;-61
2021/10/29 17:53:23;;;;;;;12.63;9.35;;;;;;;;;;5086274;28;20494;-61
2021/10/29 17:55:48;;;;;;;9.10;8.18;;;;;;;;;;5103729;27;20483;-61
2021/10/29 17:58:14;;;;;;;12.63;9.73;;;;;;;;;;5100230;28;20031;-61
2021/10/29 18:00:40;;;;;;;10.40;7.78;;;;;;;;;;5102169;28;20032;-61
2021/10/29 18:03:08;;;;;;;9.77;7.50;;;;;;;;;;5108792;27;20024;-60
2021/10/29 18:05:34;;;;;;;8.88;7.53;;;;;;;;;;5102959;27;20114;-61
2021/10/29 18:08:05;;;;;;;8.88;8.00;;;;;;;;;;5089967;27;20106;-61
2021/10/29 18:10:32;;;;;;;9.70;7.35;;;;;;;;;;5103140;27;20049;-61
2021/10/29 18:13:01;;;;;;;9.52;8.20;;;;;;;;;;5099073;28;20106;-62
2021/10/29 18:15:29;;;;;;;12.20;7.95;;;;;;;;;;5085612;28;20028;-70
2021/10/29 18:17:55;;;;;;;7.95;6.78;;;;;;;;;;5104053;28;20086;-69
2021/10/29 18:20:21;;;;;;;8.43;7.13;;;;;;;;;;5103395;28;20024;-69
2021/10/29 18:22:46;;;;;;;11.25;7.57;;;;;;;;;;5103767;28;20046;-69
2021/10/29 18:25:12;;;;;;;10.32;7.57;;;;;;;;;;5088426;28;20030;-69
2021/10/29 18:27:38;;;;;;;13.00;9.10;;;;;;;;;;5104748;28;20034;-70
2021/10/29 18:30:05;;;;;;;8.90;7.20;;;;;;;;;;5106226;28;20058;-73
2021/10/29 18:32:31;;;;;;;8.35;7.22;;;;;;;;;;5105547;28;20073;-72
2021/10/29 18:34:57;;;;;;;10.35;9.07;;;;;;;;;;5100118;28;20032;-60
2021/10/29 18:37:24;;;;;;;12.93;9.68;;;;;;;;;;5101346;28;20753;-62
2021/10/29 18:39:51;;;;;;;13.55;11.13;;;;;;;;;;5102598;28;20036;-63
2021/10/29 18:42:18;;;;;;;14.82;9.35;;;;;;;;;;5099275;28;20766;-62
2021/10/29 18:44:44;;;;;;;14.38;9.15;;;;;;;;;;5100853;28;20027;-63
2021/10/29 18:47:10;;;;;;;13.10;8.07;;;;;;;;;;5089940;28;20035;-63
2021/10/29 18:49:36;;;;;;;8.52;7.68;;;;;;;;;;5099080;28;20065;-63
2021/10/29 18:52:02;;;;;;;8.85;7.93;;;;;;;;;;5100948;28;20016;-62
2021/10/29 18:54:29;;;;;;;10.15;7.97;;;;;;;;;;5103062;28;20348;-62
2021/10/29 18:56:55;;;;;;;8.63;5.95;;;;;;;;;;5098829;28;20051;-61
2021/10/29 18:59:20;;;;;;;8.82;7.97;;;;;;;;;;5099198;28;20074;-61
2021/10/29 19:01:48;;;;;;;8.48;6.63;;;;;;;;;;5105341;28;20530;-60
2021/10/29 19:04:14;;;;;;;10.95;9.43;;;;;;;;;;5097714;28;20035;-60
2021/10/29 19:06:40;;;;;;;9.00;7.13;;;;;;;;;;5102862;28;20035;-64
2021/10/29 19:09:06;;;;;;;9.40;6.18;;;;;;;;;;5102317;28;20468;-62
2021/10/29 19:11:38;;;;;;;7.78;6.78;;;;;;;;;;5102073;28;20027;-61
2021/10/29 19:14:05;;;;;;;7.78;5.82;;;;;;;;;;5101129;28;20449;-63
2021/10/29 19:16:30;;;;;;;5.85;5.05;;;;;;;;;;5083654;28;20069;-61
2021/10/29 19:18:56;;;;;;;6.63;5.88;;;;;;;;;;5101601;28;20020;-62
2021/10/29 19:21:22;;;;;;;7.32;5.72;;;;;;;;;;5101790;28;20028;-62
2021/10/29 19:23:49;;;;;;;5.18;4.68;;;;;;;;;;5084991;28;20107;-61
2021/10/29 19:26:16;;;;;;;8.38;5.95;;;;;;;;;;5103000;28;20406;-61
2021/10/29 19:28:41;;;;;;;6.50;5.18;;;;;;;;;;5100426;28;20035;-61
2021/10/29 19:31:07;;;;;;;5.00;4.50;;;;;;;;;;5101219;28;20603;-61
2021/10/29 19:33:33;;;;;;;4.25;3.50;;;;;;;;;;5103428;28;20035;-62
2021/10/29 19:36:04;;;;;;;7.30;4.78;;;;;;;;;;5103841;28;20118;-61
2021/10/29 19:38:30;;;;;;;6.63;5.35;;;;;;;;;;5089442;28;20106;-61
2021/10/29 19:40:55;;;;;;;5.13;4.25;;;;;;;;;;5102872;28;20119;-60